Terminal Aerodrome Forecast
Issued by NWS

Home | Current Version | Previous Version | Text Only | Print | Product List | Glossary On
Versions: 1 2 3 4 5 6 7 8 9 10 11 12 13 14 15 16 17
000
FTUS43 KDLH 290800 AAB
TAFBRD
TAF AMD
KBRD 290847Z 2909/3006 19012KT P6SM -RA OVC070 WS020/20045KT
      TEMPO 2909/2912 17012G20KT 5SM -SNRA SCT015 BKN040
     FM291200 24012KT 6SM -RA SCT015 OVC030
     FM291600 32018G35KT 6SM -RA OVC025
     FM292000 32016G30KT P6SM BKN040=

USA.gov is the U.S. government's official web portal to all federal, state and local government web resources and services.